createdAt,value
2018-02-16T00:00:49.910Z,4.10
2018-02-16T00:03:17.717Z,4.10
2018-02-16T00:05:45.750Z,4.10
2018-02-16T00:08:13.691Z,4.10
2018-02-16T00:10:41.789Z,4.10
2018-02-16T00:13:09.668Z,4.10
2018-02-16T00:15:37.426Z,4.20
2018-02-16T00:18:05.775Z,4.20
2018-02-16T00:20:33.681Z,4.20
2018-02-16T00:23:02.097Z,4.10
2018-02-16T00:25:29.932Z,4.10
2018-02-16T00:27:58.704Z,4.20
2018-02-16T00:30:26.457Z,4.20
2018-02-16T00:32:54.337Z,4.30
2018-02-16T00:35:23.020Z,4.20
2018-02-16T00:37:50.856Z,4.20
2018-02-16T00:40:18.630Z,4.30
2018-02-16T00:42:46.403Z,4.40
2018-02-16T00:45:14.248Z,4.40
2018-02-16T00:47:42.039Z,4.50
2018-02-16T00:50:09.883Z,4.40
2018-02-16T00:52:37.774Z,4.40
2018-02-16T00:55:05.637Z,4.50
2018-02-16T00:57:33.640Z,4.60
2018-02-16T01:00:02.222Z,4.60
2018-02-16T01:02:31.180Z,4.60
2018-02-16T01:04:58.942Z,4.60
2018-02-16T01:07:26.756Z,4.60
2018-02-16T01:09:54.693Z,4.70
2018-02-16T01:12:22.522Z,4.80
2018-02-16T01:14:50.270Z,4.70
2018-02-16T01:17:18.016Z,4.90
2018-02-16T01:19:46.018Z,4.80
2018-02-16T01:22:13.817Z,4.90
2018-02-16T01:24:41.788Z,4.90
2018-02-16T01:27:09.633Z,4.90
2018-02-16T01:29:37.453Z,4.90
2018-02-16T01:32:05.352Z,5.00
2018-02-16T01:34:33.216Z,5.00
2018-02-16T01:37:01.150Z,5.00
2018-02-16T01:39:29.052Z,5.00
2018-02-16T01:41:56.918Z,4.90
2018-02-16T01:44:25.317Z,5.00
2018-02-16T01:46:53.294Z,5.00
2018-02-16T01:49:21.149Z,5.00
2018-02-16T01:51:48.995Z,5.00
2018-02-16T01:54:16.794Z,4.80
2018-02-16T01:56:44.646Z,4.70
2018-02-16T01:59:12.802Z,4.60
2018-02-16T02:01:40.582Z,4.60
2018-02-16T02:04:08.461Z,4.70
2018-02-16T02:06:36.204Z,4.70
2018-02-16T02:09:04.122Z,4.70
2018-02-16T02:11:32.765Z,4.70
2018-02-16T02:14:00.992Z,4.70
2018-02-16T02:16:28.735Z,4.70
2018-02-16T02:18:57.385Z,4.70
2018-02-16T02:21:25.438Z,4.70
2018-02-16T02:23:53.413Z,4.60
2018-02-16T02:26:21.157Z,4.60
2018-02-16T02:28:49.577Z,4.60
2018-02-16T02:31:18.054Z,4.60
2018-02-16T02:33:46.003Z,4.70
2018-02-16T02:36:13.813Z,4.60
2018-02-16T02:38:42.571Z,4.60
2018-02-16T02:41:10.306Z,4.60
2018-02-16T02:43:38.191Z,4.60
2018-02-16T02:46:06.057Z,4.60
2018-02-16T02:48:33.939Z,4.50
2018-02-16T02:51:02.107Z,4.50
2018-02-16T02:53:30.068Z,4.40
2018-02-16T02:55:57.946Z,4.50
2018-02-16T02:58:25.914Z,4.50
2018-02-16T03:00:53.781Z,4.50
2018-02-16T03:03:21.731Z,4.40
2018-02-16T03:05:49.620Z,4.40
2018-02-16T03:08:17.840Z,4.40
2018-02-16T03:10:46.298Z,4.40
2018-02-16T03:13:14.857Z,4.30
2018-02-16T03:15:43.951Z,4.30
2018-02-16T03:18:11.977Z,4.20
2018-02-16T03:20:39.719Z,4.20
2018-02-16T03:23:08.268Z,4.20
2018-02-16T03:25:36.038Z,4.20
2018-02-16T03:28:03.915Z,4.20
2018-02-16T03:30:31.927Z,4.20
2018-02-16T03:32:59.870Z,4.20
2018-02-16T03:35:28.706Z,4.10
2018-02-16T03:37:56.674Z,4.10
2018-02-16T03:40:25.378Z,4.10
2018-02-16T03:42:53.142Z,4.10
2018-02-16T03:45:21.395Z,4.10
2018-02-16T03:47:49.134Z,4.10
2018-02-16T03:50:17.001Z,4.10
2018-02-16T03:52:44.781Z,4.00
2018-02-16T03:55:12.783Z,4.10
2018-02-16T03:57:40.546Z,4.10
2018-02-16T04:00:08.412Z,4.00
2018-02-16T04:02:36.786Z,4.00
2018-02-16T04:05:05.466Z,4.00
2018-02-16T04:07:33.204Z,4.00
2018-02-16T04:10:01.180Z,4.00
2018-02-16T04:12:28.931Z,4.00
2018-02-16T04:14:56.763Z,4.00
2018-02-16T04:17:25.292Z,4.00
2018-02-16T04:19:53.602Z,4.00
2018-02-16T04:22:21.478Z,4.10
2018-02-16T04:24:50.043Z,4.10
2018-02-16T04:27:18.121Z,4.10
2018-02-16T04:29:46.199Z,4.20
2018-02-16T04:32:13.982Z,4.20
2018-02-16T04:34:43.145Z,4.10
2018-02-16T04:37:10.924Z,4.10
2018-02-16T04:39:38.652Z,4.10
2018-02-16T04:42:06.407Z,4.20
2018-02-16T04:44:34.218Z,4.20
2018-02-16T04:47:02.115Z,4.20
2018-02-16T04:49:30.002Z,4.10
2018-02-16T04:51:57.909Z,4.10
2018-02-16T04:54:25.777Z,4.00
2018-02-16T04:56:54.363Z,4.00
2018-02-16T04:59:22.944Z,4.00
2018-02-16T05:01:51.829Z,4.00
2018-02-16T05:04:19.806Z,4.00
2018-02-16T05:06:47.956Z,4.00
2018-02-16T05:09:16.231Z,4.00
2018-02-16T05:11:43.976Z,4.00
2018-02-16T05:14:11.981Z,4.10
2018-02-16T05:16:40.140Z,4.10
2018-02-16T05:19:07.921Z,4.10
2018-02-16T05:21:35.665Z,4.00
2018-02-16T05:24:03.770Z,4.00
2018-02-16T05:26:31.970Z,4.10
2018-02-16T05:29:00.725Z,4.10
2018-02-16T05:31:28.480Z,4.10
2018-02-16T05:33:56.330Z,4.30
2018-02-16T05:36:24.126Z,4.40
2018-02-16T05:38:52.696Z,4.50
2018-02-16T05:41:20.806Z,4.50
2018-02-16T05:43:49.334Z,4.60
2018-02-16T05:46:17.127Z,4.60
2018-02-16T05:48:44.976Z,4.60
2018-02-16T05:51:12.753Z,4.50
2018-02-16T05:53:40.666Z,4.60
2018-02-16T05:56:08.473Z,4.60
2018-02-16T05:58:36.323Z,4.60
2018-02-16T06:01:04.211Z,4.60
2018-02-16T06:03:32.035Z,4.60
2018-02-16T06:06:00.442Z,4.60
2018-02-16T06:08:28.223Z,4.70
2018-02-16T06:10:56.247Z,4.60
2018-02-16T06:13:24.034Z,4.60
2018-02-16T06:15:51.793Z,4.60
2018-02-16T06:18:20.253Z,4.60
2018-02-16T06:20:48.741Z,4.60
2018-02-16T06:23:16.525Z,4.50
2018-02-16T06:25:44.314Z,4.50
2018-02-16T06:28:12.366Z,4.60
2018-02-16T06:30:40.147Z,4.50
2018-02-16T06:33:07.964Z,4.50
2018-02-16T06:35:35.874Z,4.60
2018-02-16T06:38:03.741Z,4.60
2018-02-16T06:40:31.903Z,4.60
2018-02-16T06:42:59.993Z,4.50
2018-02-16T06:45:28.647Z,4.60
2018-02-16T06:47:56.505Z,4.50
2018-02-16T06:50:25.162Z,4.60
2018-02-16T06:52:53.789Z,4.70
2018-02-16T06:55:21.574Z,4.70
2018-02-16T06:57:56.282Z,4.70
2018-02-16T07:00:24.152Z,4.70
2018-02-16T07:02:52.834Z,4.70
2018-02-16T07:05:20.720Z,4.70
2018-02-16T07:07:48.797Z,4.80
2018-02-16T07:10:16.581Z,4.80
2018-02-16T07:12:45.218Z,4.80
2018-02-16T07:15:13.205Z,4.80
2018-02-16T07:17:41.175Z,4.80
2018-02-16T07:20:09.122Z,4.70
2018-02-16T07:22:37.195Z,4.70
2018-02-16T07:25:05.168Z,4.70
2018-02-16T07:27:32.954Z,4.70
2018-02-16T07:30:01.123Z,4.60
2018-02-16T07:32:28.870Z,4.60
2018-02-16T07:34:56.858Z,4.60
2018-02-16T07:37:24.826Z,4.60
2018-02-16T07:39:52.715Z,4.60
2018-02-16T07:42:21.391Z,4.60
2018-02-16T07:44:49.271Z,4.60
2018-02-16T07:47:18.011Z,4.60
2018-02-16T07:49:46.622Z,4.60
2018-02-16T07:52:14.668Z,4.60
2018-02-16T07:54:42.559Z,4.60
2018-02-16T07:57:10.418Z,4.60
2018-02-16T07:59:38.265Z,4.60
2018-02-16T08:02:06.167Z,4.50
2018-02-16T08:04:34.342Z,4.50
2018-02-16T08:07:02.601Z,4.60
2018-02-16T08:09:30.550Z,4.60
2018-02-16T08:11:59.689Z,4.60
2018-02-16T08:14:28.260Z,4.50
2018-02-16T08:16:56.226Z,4.50
2018-02-16T08:19:24.168Z,4.50
2018-02-16T08:21:51.948Z,4.50
2018-02-16T08:24:20.138Z,4.50
2018-02-16T08:26:48.192Z,4.50
2018-02-16T08:29:16.250Z,4.50
2018-02-16T08:31:44.030Z,4.60
2018-02-16T08:34:13.333Z,4.60
2018-02-16T08:36:41.296Z,4.60
2018-02-16T08:39:09.117Z,4.60
2018-02-16T08:41:36.908Z,4.60
2018-02-16T08:44:04.692Z,4.60
2018-02-16T08:46:32.664Z,4.80
2018-02-16T08:49:00.634Z,4.80
2018-02-16T08:51:28.496Z,4.90
2018-02-16T08:53:56.536Z,4.90
2018-02-16T08:56:24.727Z,4.90
2018-02-16T08:58:52.540Z,4.90
2018-02-16T09:01:21.296Z,4.80
2018-02-16T09:03:49.232Z,4.80
2018-02-16T09:06:16.970Z,4.80
2018-02-16T09:08:44.974Z,4.80
2018-02-16T09:11:12.856Z,4.70
2018-02-16T09:13:40.621Z,4.70
2018-02-16T09:16:08.620Z,4.80
2018-02-16T09:18:37.477Z,4.80
2018-02-16T09:21:05.251Z,4.80
2018-02-16T09:23:33.302Z,4.80
2018-02-16T09:26:01.372Z,4.80
2018-02-16T09:28:29.113Z,4.90
2018-02-16T09:30:57.656Z,4.90
2018-02-16T09:33:26.222Z,5.10
2018-02-16T09:35:55.733Z,5.20
2018-02-16T09:38:23.478Z,5.20
2018-02-16T09:40:51.332Z,5.30
2018-02-16T09:43:20.227Z,5.30
2018-02-16T09:45:48.215Z,5.40
2018-02-16T09:48:15.971Z,5.50
2018-02-16T09:50:43.841Z,5.40
2018-02-16T09:53:11.914Z,5.50
2018-02-16T09:55:40.278Z,5.60
2018-02-16T09:58:08.280Z,5.60
2018-02-16T10:00:36.062Z,5.60
2018-02-16T10:03:05.530Z,5.70
2018-02-16T10:05:33.313Z,5.60
2018-02-16T10:08:01.349Z,5.70
2018-02-16T10:10:29.136Z,5.60
2018-02-16T10:12:57.204Z,5.60
2018-02-16T10:15:25.050Z,5.60
2018-02-16T10:17:53.755Z,5.70
2018-02-16T10:20:21.810Z,5.70
2018-02-16T10:22:50.292Z,5.70
2018-02-16T10:25:18.272Z,5.80
2018-02-16T10:27:46.123Z,6.00
2018-02-16T10:30:13.872Z,6.00
2018-02-16T10:32:41.960Z,6.10
2018-02-16T10:35:09.815Z,6.10
2018-02-16T10:37:37.973Z,6.20
2018-02-16T10:40:05.887Z,6.20
2018-02-16T10:42:33.751Z,6.10
2018-02-16T10:45:02.186Z,6.10
2018-02-16T10:47:30.824Z,5.90
2018-02-16T10:49:58.784Z,5.90
2018-02-16T10:52:26.878Z,5.90
2018-02-16T10:54:55.742Z,6.00
2018-02-16T10:57:23.696Z,6.00
2018-02-16T10:59:51.745Z,6.10
2018-02-16T11:02:25.178Z,6.20
2018-02-16T11:04:58.773Z,6.30
2018-02-16T11:07:32.569Z,6.40
2018-02-16T11:10:00.858Z,6.60
2018-02-16T11:12:28.769Z,6.80
2018-02-16T11:14:58.239Z,7.00
2018-02-16T11:17:26.330Z,6.90
2018-02-16T11:19:54.211Z,7.00
2018-02-16T11:22:22.896Z,7.00
2018-02-16T11:24:51.912Z,7.20
2018-02-16T11:27:19.723Z,7.20
2018-02-16T11:29:48.283Z,7.00
2018-02-16T11:32:16.275Z,6.90
2018-02-16T11:34:44.356Z,6.90
2018-02-16T11:37:12.127Z,6.60
2018-02-16T11:39:40.235Z,6.40
2018-02-16T11:42:08.042Z,6.40
2018-02-16T11:44:36.099Z,6.40
2018-02-16T11:47:04.277Z,6.50
2018-02-16T11:49:32.241Z,6.50
2018-02-16T11:52:00.018Z,6.50
2018-02-16T11:54:28.729Z,6.60
2018-02-16T11:56:57.700Z,6.50
2018-02-16T11:59:25.565Z,6.50
2018-02-16T12:01:53.431Z,6.40
2018-02-16T12:04:21.281Z,6.40
2018-02-16T12:06:51.943Z,6.40
2018-02-16T12:09:19.881Z,6.40
2018-02-16T12:11:47.675Z,6.50
2018-02-16T12:14:15.637Z,6.60
2018-02-16T12:16:44.096Z,6.50
2018-02-16T12:19:13.029Z,6.50
2018-02-16T12:21:41.595Z,6.80
2018-02-16T12:24:09.657Z,6.70
2018-02-16T12:26:37.627Z,6.80
2018-02-16T12:29:05.589Z,6.60
2018-02-16T12:31:33.658Z,6.60
2018-02-16T12:34:01.853Z,6.80
2018-02-16T12:36:30.126Z,6.90
2018-02-16T12:38:57.891Z,7.20
2018-02-16T12:41:25.657Z,7.20
2018-02-16T12:43:53.566Z,7.20
2018-02-16T12:46:21.328Z,7.20
2018-02-16T12:48:49.208Z,7.10
2018-02-16T12:51:17.011Z,7.10
2018-02-16T12:53:44.891Z,7.10
2018-02-16T12:56:12.767Z,7.10
2018-02-16T12:58:41.530Z,7.10
2018-02-16T13:01:09.904Z,7.10
2018-02-16T13:03:37.860Z,7.10
2018-02-16T13:06:05.655Z,7.30
2018-02-16T13:08:33.613Z,7.50
2018-02-16T13:11:01.972Z,7.50
2018-02-16T13:13:29.883Z,7.40
2018-02-16T13:15:58.726Z,7.40
2018-02-16T13:18:26.512Z,7.40
2018-02-16T13:20:54.464Z,7.40
2018-02-16T13:23:22.343Z,7.60
2018-02-16T13:25:50.195Z,7.60
2018-02-16T13:28:17.960Z,7.40
2018-02-16T13:30:46.032Z,7.10
2018-02-16T13:33:13.916Z,7.00
2018-02-16T13:35:41.683Z,7.00
2018-02-16T13:38:09.462Z,6.80
2018-02-16T13:40:37.635Z,6.90
2018-02-16T13:43:06.542Z,6.80
2018-02-16T13:45:35.210Z,6.70
2018-02-16T13:48:03.058Z,6.70
2018-02-16T13:50:30.923Z,6.70
2018-02-16T13:52:59.979Z,6.90
2018-02-16T13:55:28.178Z,6.80
2018-02-16T13:57:55.953Z,6.70
2018-02-16T14:00:23.739Z,6.70
2018-02-16T14:02:51.496Z,6.50
2018-02-16T14:05:19.600Z,6.60
2018-02-16T14:07:47.558Z,6.40
2018-02-16T14:10:18.271Z,6.40
2018-02-16T14:12:46.883Z,6.30
2018-02-16T14:15:15.586Z,6.40
2018-02-16T14:17:43.784Z,6.40
2018-02-16T14:20:11.674Z,6.10
2018-02-16T14:22:39.781Z,5.90
2018-02-16T14:25:09.509Z,5.90
2018-02-16T14:27:37.532Z,5.90
2018-02-16T14:30:05.490Z,6.00
2018-02-16T14:32:34.263Z,6.10
2018-02-16T14:35:02.351Z,6.10
2018-02-16T14:37:30.439Z,6.20
2018-02-16T14:39:58.222Z,6.30
2018-02-16T14:42:26.906Z,6.00
2018-02-16T14:44:55.546Z,6.20
2018-02-16T14:47:23.343Z,6.20
2018-02-16T14:49:51.316Z,6.20
2018-02-16T14:52:20.383Z,5.80
2018-02-16T14:54:49.159Z,5.80
2018-02-16T14:57:17.364Z,5.80
2018-02-16T14:59:45.618Z,5.70
2018-02-16T15:02:13.768Z,5.70
2018-02-16T15:04:43.301Z,5.60
2018-02-16T15:07:11.275Z,5.60
2018-02-16T15:09:40.783Z,5.60
2018-02-16T15:12:08.877Z,5.60
2018-02-16T15:14:38.160Z,5.50
2018-02-16T15:17:07.079Z,5.50
2018-02-16T15:19:34.903Z,5.50
2018-02-16T15:22:02.776Z,5.50
2018-02-16T15:24:30.723Z,5.50
2018-02-16T15:26:58.821Z,5.50
2018-02-16T15:29:27.077Z,5.50
2018-02-16T15:31:54.894Z,5.50
2018-02-16T15:34:23.441Z,5.50
2018-02-16T15:36:52.214Z,5.50
2018-02-16T15:39:20.176Z,5.50
2018-02-16T15:41:47.972Z,5.50
2018-02-16T15:44:15.917Z,5.50
2018-02-16T15:46:44.729Z,5.50
2018-02-16T15:49:12.569Z,5.50
2018-02-16T15:51:40.466Z,5.50
2018-02-16T15:54:08.339Z,5.50
2018-02-16T15:56:36.995Z,5.40
2018-02-16T15:59:04.775Z,5.40
2018-02-16T16:01:33.254Z,5.40
2018-02-16T16:04:01.196Z,5.30
2018-02-16T16:06:29.275Z,5.30
2018-02-16T16:08:57.267Z,5.20
2018-02-16T16:11:26.242Z,5.30
2018-02-16T16:13:55.051Z,5.20
2018-02-16T16:16:22.995Z,5.20
2018-02-16T16:18:50.984Z,5.20
2018-02-16T16:21:18.922Z,5.20
2018-02-16T16:23:46.890Z,5.10
2018-02-16T16:26:14.787Z,5.10
2018-02-16T16:28:44.287Z,5.00
2018-02-16T16:31:12.333Z,5.00
2018-02-16T16:33:40.304Z,5.00
2018-02-16T16:36:08.817Z,5.00
2018-02-16T16:38:36.677Z,5.00
2018-02-16T16:41:04.526Z,5.00
2018-02-16T16:43:32.666Z,5.00
2018-02-16T16:46:01.378Z,5.00
2018-02-16T16:48:30.455Z,4.90
2018-02-16T16:50:58.265Z,4.90
2018-02-16T16:53:26.306Z,4.90
2018-02-16T16:55:55.327Z,4.80
2018-02-16T16:58:24.832Z,4.80
2018-02-16T17:00:52.739Z,4.80
2018-02-16T17:03:21.670Z,4.70
2018-02-16T17:05:50.233Z,4.70
2018-02-16T17:08:18.342Z,4.70
2018-02-16T17:10:46.907Z,4.70
2018-02-16T17:13:15.384Z,4.70
2018-02-16T17:15:43.303Z,4.70
2018-02-16T17:18:12.199Z,4.70
2018-02-16T17:20:41.131Z,4.60
2018-02-16T17:23:09.052Z,4.70
2018-02-16T17:25:37.612Z,4.70
2018-02-16T17:28:06.777Z,4.70
2018-02-16T17:30:34.561Z,4.70
2018-02-16T17:33:03.352Z,4.70
2018-02-16T17:35:32.219Z,4.70
2018-02-16T17:38:00.176Z,4.60
2018-02-16T17:40:27.972Z,4.60
2018-02-16T17:42:56.217Z,4.60
2018-02-16T17:45:24.330Z,4.50
2018-02-16T17:47:52.258Z,4.50
2018-02-16T17:50:20.287Z,4.50
2018-02-16T17:52:49.027Z,4.50
2018-02-16T17:55:17.027Z,4.50
2018-02-16T17:57:45.072Z,4.50
2018-02-16T18:00:12.948Z,4.60
2018-02-16T18:02:40.933Z,4.60
2018-02-16T18:05:08.872Z,4.60
2018-02-16T18:07:36.840Z,4.50
2018-02-16T18:10:04.835Z,4.50
2018-02-16T18:12:32.703Z,4.50
2018-02-16T18:15:01.077Z,4.50
2018-02-16T18:17:28.965Z,4.50
2018-02-16T18:19:57.440Z,4.50
2018-02-16T18:22:25.425Z,4.40
2018-02-16T18:24:54.259Z,4.30
2018-02-16T18:27:22.976Z,4.30
2018-02-16T18:29:51.734Z,4.30
2018-02-16T18:32:19.480Z,4.20
2018-02-16T18:34:47.387Z,4.30
2018-02-16T18:37:15.285Z,4.20
2018-02-16T18:39:43.915Z,4.20
2018-02-16T18:42:11.748Z,4.10
2018-02-16T18:44:39.671Z,4.10
2018-02-16T18:47:07.701Z,4.20
2018-02-16T18:49:35.629Z,4.20
2018-02-16T18:52:04.709Z,4.20
2018-02-16T18:54:33.413Z,4.20
2018-02-16T18:57:02.263Z,4.20
2018-02-16T18:59:30.253Z,4.20
2018-02-16T19:01:58.217Z,4.10
2018-02-16T19:04:26.801Z,4.10
2018-02-16T19:06:54.850Z,4.10
2018-02-16T19:09:23.739Z,4.10
2018-02-16T19:11:51.605Z,4.10
2018-02-16T19:14:19.476Z,4.10
2018-02-16T19:16:47.338Z,4.10
2018-02-16T19:19:15.208Z,4.10
2018-02-16T19:21:43.277Z,4.20
2018-02-16T19:24:11.292Z,4.20
2018-02-16T19:26:40.636Z,4.20
2018-02-16T19:29:08.624Z,4.20
2018-02-16T19:31:36.987Z,4.20
2018-02-16T19:34:05.590Z,4.20
2018-02-16T19:36:35.189Z,4.20
2018-02-16T19:39:04.076Z,4.20
2018-02-16T19:41:32.266Z,4.20
2018-02-16T19:44:00.526Z,4.20
2018-02-16T19:46:29.953Z,4.20
2018-02-16T19:48:58.959Z,4.20
2018-02-16T19:51:27.387Z,4.20
2018-02-16T19:53:56.796Z,4.20
2018-02-16T19:56:25.646Z,4.20
2018-02-16T19:58:53.989Z,4.30
2018-02-16T20:01:22.049Z,4.30
2018-02-16T20:03:50.434Z,4.30
2018-02-16T20:06:20.370Z,4.30
2018-02-16T20:08:49.226Z,4.20
2018-02-16T20:11:17.475Z,4.20
2018-02-16T20:13:46.031Z,4.30
2018-02-16T20:16:15.488Z,4.40
2018-02-16T20:18:44.283Z,4.40
2018-02-16T20:21:13.028Z,4.40
2018-02-16T20:23:40.982Z,4.40
2018-02-16T20:26:10.038Z,4.40
2018-02-16T20:28:38.725Z,4.40
2018-02-16T20:31:07.379Z,4.30
2018-02-16T20:33:36.182Z,4.40
2018-02-16T20:36:05.393Z,4.30
2018-02-16T20:38:33.670Z,4.30
2018-02-16T20:41:02.428Z,4.30
2018-02-16T20:43:32.184Z,4.30
2018-02-16T20:46:01.013Z,4.20
2018-02-16T20:48:29.119Z,4.20
2018-02-16T20:50:58.200Z,4.20
2018-02-16T20:53:26.712Z,4.20
2018-02-16T20:55:54.865Z,4.20
2018-02-16T20:58:23.037Z,4.20
2018-02-16T21:00:51.220Z,4.20
2018-02-16T21:03:19.388Z,4.30
2018-02-16T21:05:47.942Z,4.30
2018-02-16T21:08:16.376Z,4.20
2018-02-16T21:10:45.134Z,4.20
2018-02-16T21:13:13.207Z,4.20
2018-02-16T21:15:41.279Z,4.20
2018-02-16T21:18:09.276Z,4.20
2018-02-16T21:20:37.734Z,4.10
2018-02-16T21:23:05.872Z,4.20
2018-02-16T21:25:34.192Z,4.10
2018-02-16T21:28:02.980Z,4.10
2018-02-16T21:30:34.725Z,4.10
2018-02-16T21:33:02.999Z,4.10
2018-02-16T21:35:31.276Z,4.10
2018-02-16T21:38:00.206Z,4.00
2018-02-16T21:40:28.981Z,4.10
2018-02-16T21:42:58.460Z,4.10
2018-02-16T21:45:27.044Z,4.10
2018-02-16T21:47:54.908Z,4.10
2018-02-16T21:50:23.111Z,4.00
2018-02-16T21:52:51.279Z,4.00
2018-02-16T21:55:20.255Z,4.00
2018-02-16T21:57:48.141Z,4.00
2018-02-16T22:00:16.004Z,3.90
2018-02-16T22:02:44.502Z,3.90
2018-02-16T22:05:14.242Z,3.90
2018-02-16T22:07:42.246Z,3.90
2018-02-16T22:10:10.874Z,3.90
2018-02-16T22:12:39.614Z,4.00
2018-02-16T22:15:07.457Z,3.90
2018-02-16T22:17:35.553Z,3.90
2018-02-16T22:20:03.625Z,3.90
2018-02-16T22:22:32.762Z,3.90
2018-02-16T22:25:01.609Z,3.90
2018-02-16T22:27:29.484Z,3.80
2018-02-16T22:29:57.365Z,3.80
2018-02-16T22:32:25.329Z,3.80
2018-02-16T22:34:54.283Z,3.90
2018-02-16T22:37:22.177Z,3.80
2018-02-16T22:39:50.464Z,3.80
2018-02-16T22:42:18.294Z,3.80
2018-02-16T22:44:46.138Z,3.80
2018-02-16T22:47:14.253Z,3.90
2018-02-16T22:49:42.197Z,3.80
2018-02-16T22:52:10.012Z,3.80
2018-02-16T22:54:37.793Z,3.80
2018-02-16T22:57:06.639Z,3.80
2018-02-16T22:59:34.520Z,3.80
2018-02-16T23:02:02.470Z,3.70
2018-02-16T23:04:30.486Z,3.70
2018-02-16T23:06:59.466Z,3.70
2018-02-16T23:09:28.133Z,3.70
2018-02-16T23:11:56.749Z,3.70
2018-02-16T23:14:25.422Z,3.70
2018-02-16T23:16:53.712Z,3.70
2018-02-16T23:19:22.254Z,3.70
2018-02-16T23:21:51.256Z,3.60
2018-02-16T23:24:19.025Z,3.60
2018-02-16T23:26:47.606Z,3.60
2018-02-16T23:29:15.399Z,3.60
2018-02-16T23:31:43.947Z,3.70
2018-02-16T23:34:11.720Z,3.70
2018-02-16T23:36:39.688Z,3.70
2018-02-16T23:39:07.634Z,3.60
2018-02-16T23:41:35.706Z,3.60
2018-02-16T23:44:03.860Z,3.60
2018-02-16T23:46:31.812Z,3.60
2018-02-16T23:48:59.735Z,3.60
2018-02-16T23:51:28.060Z,3.60
2018-02-16T23:53:55.938Z,3.60
2018-02-16T23:56:23.905Z,3.60
2018-02-16T23:58:51.660Z,3.60
